Time;durP1;ratioP1;P1;durP2;ratioP2;P2;SDS_P1;SDS_P2;PMS_P1;PMS_P2;Temp;Humidity;BMP_temperature;BMP_pressure;BME280_temperature;BME280_humidity;BME280_pressure;Samples;Min_cycle;Max_cycle;Signal;HPM_P1;HPM_P2
2023/03/18 00:00:50;;;;;;;9.95;3.30;;;11.90;99.90;;;;;;5004098;28;20457;-63
2023/03/18 00:03:16;;;;;;;7.10;3.15;;;12.00;99.90;;;;;;5007584;28;20104;-63
2023/03/18 00:05:42;;;;;;;9.65;3.38;;;12.00;99.90;;;;;;5002535;28;20093;-62
2023/03/18 00:08:08;;;;;;;6.80;3.55;;;12.00;99.90;;;;;;4999994;28;20049;-62
2023/03/18 00:10:34;;;;;;;6.30;3.00;;;11.90;99.90;;;;;;4999013;28;20423;-63
2023/03/18 00:13:00;;;;;;;6.93;3.33;;;11.90;99.90;;;;;;5003344;28;20022;-63
2023/03/18 00:15:27;;;;;;;10.38;3.28;;;11.70;99.90;;;;;;5002668;28;20057;-63
2023/03/18 00:17:53;;;;;;;8.93;3.55;;;11.50;99.90;;;;;;4985175;28;20036;-63
2023/03/18 00:20:27;;;;;;;8.43;3.67;;;11.50;99.90;;;;;;5003091;28;20137;-62
2023/03/18 00:22:56;;;;;;;7.68;3.40;;;11.50;99.90;;;;;;5003194;28;20512;-63
2023/03/18 00:25:22;;;;;;;10.45;3.30;;;11.50;99.90;;;;;;5002164;28;20053;-62
2023/03/18 00:27:47;;;;;;;6.35;3.40;;;11.40;99.90;;;;;;5002453;28;20373;-63
2023/03/18 00:30:13;;;;;;;7.18;3.75;;;11.50;99.90;;;;;;5002861;28;20030;-62
2023/03/18 00:32:40;;;;;;;8.07;3.17;;;11.40;99.90;;;;;;4987423;28;20057;-62
2023/03/18 00:35:06;;;;;;;8.63;3.28;;;11.40;99.90;;;;;;5002667;28;20583;-62
2023/03/18 00:37:32;;;;;;;6.63;3.25;;;11.40;99.90;;;;;;5003144;28;20041;-63
2023/03/18 00:40:05;;;;;;;6.63;3.40;;;11.40;99.90;;;;;;5002584;28;20677;-63
2023/03/18 00:42:37;;;;;;;;;;;11.30;99.90;;;;;;4984167;28;20501;-62
2023/03/18 00:45:05;;;;;;;11.52;4.03;;;11.30;99.90;;;;;;4982786;28;19921;-62
2023/03/18 00:47:31;;;;;;;6.60;3.88;;;11.40;99.90;;;;;;4983249;28;20687;-63
2023/03/18 00:49:57;;;;;;;7.75;3.67;;;11.40;99.90;;;;;;4983071;28;20054;-62
2023/03/18 00:52:23;;;;;;;10.25;3.65;;;11.50;99.90;;;;;;4983091;28;20041;-62
2023/03/18 00:54:49;;;;;;;11.57;3.97;;;11.50;99.90;;;;;;4996870;28;20096;-63
2023/03/18 00:57:14;;;;;;;8.55;3.72;;;11.50;99.90;;;;;;5002066;28;20129;-63
2023/03/18 00:59:40;;;;;;;7.82;3.63;;;11.50;99.90;;;;;;5001090;28;20121;-63
2023/03/18 01:02:06;;;;;;;9.63;4.10;;;11.40;99.90;;;;;;4999549;28;20087;-62
2023/03/18 01:04:32;;;;;;;7.47;3.72;;;11.30;99.90;;;;;;5002439;28;20904;-63
2023/03/18 01:06:58;;;;;;;9.10;4.30;;;11.20;99.90;;;;;;5002117;28;20041;-63
2023/03/18 01:09:23;;;;;;;9.10;3.92;;;11.20;99.90;;;;;;5002275;28;20037;-62
2023/03/18 01:11:49;;;;;;;8.93;4.00;;;11.10;99.90;;;;;;5001151;28;20068;-63
2023/03/18 01:14:15;;;;;;;9.43;3.88;;;11.10;99.90;;;;;;5001243;28;20493;-63
2023/03/18 01:16:41;;;;;;;11.65;4.20;;;11.10;99.90;;;;;;5001969;28;20498;-62
2023/03/18 01:19:06;;;;;;;9.82;4.00;;;11.20;99.90;;;;;;5002031;28;20034;-63
2023/03/18 01:21:32;;;;;;;10.85;4.53;;;11.30;99.90;;;;;;5001317;28;20070;-62
2023/03/18 01:23:59;;;;;;;10.25;4.47;;;11.30;99.90;;;;;;5002781;28;20108;-62
2023/03/18 01:26:25;;;;;;;11.95;4.93;;;11.30;99.90;;;;;;5000465;28;20473;-62
2023/03/18 01:28:51;;;;;;;7.97;4.22;;;11.20;99.90;;;;;;5001953;28;20058;-62
2023/03/18 01:31:17;;;;;;;10.52;5.22;;;11.00;99.90;;;;;;4982994;28;20060;-61
2023/03/18 01:33:42;;;;;;;11.45;4.43;;;10.90;99.90;;;;;;4998757;28;20145;-62
2023/03/18 01:36:09;;;;;;;9.25;4.30;;;10.80;99.90;;;;;;5001755;28;20157;-60
2023/03/18 01:38:35;;;;;;;11.82;4.60;;;11.10;99.90;;;;;;5002865;28;20100;-61
2023/03/18 01:41:01;;;;;;;8.27;4.55;;;11.30;99.90;;;;;;5001389;28;20034;-61
2023/03/18 01:43:30;;;;;;;10.23;5.50;;;11.20;99.90;;;;;;4981871;28;20126;-61
2023/03/18 01:45:58;;;;;;;13.05;5.00;;;11.10;99.90;;;;;;4981406;28;20477;-62
2023/03/18 01:48:27;;;;;;;7.03;4.55;;;11.00;99.90;;;;;;4982205;28;20041;-61
2023/03/18 01:50:58;;;;;;;12.68;5.25;;;11.10;99.90;;;;;;4966499;28;20074;-61
2023/03/18 01:53:30;;;;;;;9.88;5.03;;;11.00;99.90;;;;;;4982287;28;20650;-61
2023/03/18 01:55:56;;;;;;;11.13;5.25;;;10.90;99.90;;;;;;4994358;28;20480;-61
2023/03/18 01:58:30;;;;;;;10.68;5.00;;;11.10;99.90;;;;;;5001470;28;20427;-61
2023/03/18 02:01:01;;;;;;;;;;;11.10;99.90;;;;;;5002803;28;20061;-61
2023/03/18 02:03:27;;;;;;;12.70;4.65;;;11.10;99.90;;;;;;5000710;28;19916;-61
2023/03/18 02:05:53;;;;;;;11.45;5.22;;;11.00;99.90;;;;;;5000817;28;20444;-61
2023/03/18 02:08:19;;;;;;;10.30;5.18;;;10.90;99.90;;;;;;4998198;28;20131;-61
2023/03/18 02:10:45;;;;;;;11.60;5.25;;;10.90;99.90;;;;;;5002521;28;20034;-61
2023/03/18 02:13:13;;;;;;;8.75;5.00;;;10.80;99.90;;;;;;5005133;28;20018;-61
2023/03/18 02:15:55;;;;;;;10.45;5.03;;;10.90;99.90;;;;;;5005670;28;20137;-61
2023/03/18 02:18:29;;;;;;;7.38;4.93;;;10.80;99.90;;;;;;5004408;28;21519;-61
2023/03/18 02:21:33;;;;;;;9.85;4.93;;;10.70;99.90;;;;;;5005309;28;20056;-61
2023/03/18 02:24:33;;;;;;;8.50;5.22;;;10.70;99.90;;;;;;4972258;28;20038;-61
2023/03/18 02:27:11;;;;;;;9.07;5.25;;;10.80;99.90;;;;;;5004499;28;20445;-61
2023/03/18 02:29:38;;;;;;;11.18;4.80;;;10.70;99.90;;;;;;4985689;28;20026;-61
2023/03/18 02:32:06;;;;;;;10.18;5.20;;;10.80;99.90;;;;;;4985647;28;20131;-61
2023/03/18 02:34:33;;;;;;;10.13;5.13;;;10.70;99.90;;;;;;4985971;28;20046;-61
2023/03/18 02:36:58;;;;;;;12.23;5.32;;;10.70;99.90;;;;;;4985969;28;20095;-61
2023/03/18 02:39:24;;;;;;;8.95;5.13;;;10.70;99.90;;;;;;4984096;28;20610;-61
2023/03/18 02:41:51;;;;;;;11.23;5.00;;;10.70;99.90;;;;;;4985482;28;20046;-61
2023/03/18 02:44:18;;;;;;;8.48;4.95;;;10.80;99.90;;;;;;4985111;28;20121;-61
2023/03/18 02:47:05;;;;;;;7.88;5.13;;;10.80;99.90;;;;;;4985673;28;20046;-61
2023/03/18 02:49:31;;;;;;;9.25;4.55;;;10.80;99.90;;;;;;5002814;28;20670;-61
2023/03/18 02:51:57;;;;;;;9.02;4.95;;;10.80;99.90;;;;;;5005167;28;20490;-61
2023/03/18 02:54:28;;;;;;;10.10;5.03;;;10.80;99.90;;;;;;5001757;28;20083;-61
2023/03/18 02:56:54;;;;;;;9.07;4.90;;;10.70;99.90;;;;;;5003815;28;20032;-62
2023/03/18 02:59:21;;;;;;;9.00;5.00;;;10.70;99.90;;;;;;5000734;28;20072;-61
2023/03/18 03:01:49;;;;;;;12.43;5.30;;;10.60;99.90;;;;;;5003932;28;20270;-61
2023/03/18 03:04:15;;;;;;;6.65;4.38;;;10.60;99.90;;;;;;4986201;28;20124;-61
2023/03/18 03:06:41;;;;;;;11.27;5.03;;;10.50;99.90;;;;;;5002778;28;20034;-61
2023/03/18 03:09:09;;;;;;;8.20;4.72;;;10.40;99.90;;;;;;5004570;28;20030;-61
2023/03/18 03:11:35;;;;;;;8.10;4.57;;;10.40;99.90;;;;;;5000620;28;20049;-61
2023/03/18 03:14:02;;;;;;;9.32;5.43;;;10.30;99.90;;;;;;4986016;28;20081;-62
2023/03/18 03:16:28;;;;;;;11.85;5.18;;;10.30;99.90;;;;;;4984636;28;20056;-61
2023/03/18 03:18:54;;;;;;;8.85;4.85;;;10.20;99.90;;;;;;4985028;28;20458;-61
2023/03/18 03:21:20;;;;;;;7.32;4.68;;;10.10;99.90;;;;;;4983681;28;20112;-61
2023/03/18 03:23:46;;;;;;;10.20;5.03;;;10.10;99.90;;;;;;4970692;28;20112;-62
2023/03/18 03:26:13;;;;;;;8.98;5.32;;;10.00;99.90;;;;;;4982937;28;20038;-61
2023/03/18 03:28:39;;;;;;;9.82;4.82;;;10.10;99.90;;;;;;4984406;28;20035;-62
2023/03/18 03:31:05;;;;;;;11.23;5.18;;;10.10;99.90;;;;;;4984466;28;20045;-61
2023/03/18 03:33:32;;;;;;;8.50;5.10;;;10.00;99.90;;;;;;4984717;28;20041;-62
2023/03/18 03:35:58;;;;;;;12.50;5.38;;;10.10;99.90;;;;;;4984500;28;20057;-62
2023/03/18 03:38:24;;;;;;;13.43;5.47;;;10.20;99.90;;;;;;4966791;28;20026;-61
2023/03/18 03:40:50;;;;;;;13.18;5.75;;;10.20;99.90;;;;;;4983993;28;20526;-61
2023/03/18 03:43:16;;;;;;;10.75;5.47;;;10.30;99.90;;;;;;4984020;28;20037;-61
2023/03/18 03:45:43;;;;;;;13.05;5.53;;;10.30;99.90;;;;;;4967171;28;20784;-61
2023/03/18 03:48:09;;;;;;;8.40;5.00;;;10.30;99.90;;;;;;4984903;28;20426;-60
2023/03/18 03:50:36;;;;;;;10.00;5.68;;;10.30;99.90;;;;;;5004051;28;20469;-61
2023/03/18 03:53:02;;;;;;;10.25;5.60;;;10.40;99.90;;;;;;5004322;28;20061;-61
2023/03/18 03:55:29;;;;;;;10.30;6.10;;;10.40;99.90;;;;;;5002232;28;20528;-61
2023/03/18 03:57:55;;;;;;;9.98;5.70;;;10.40;99.90;;;;;;5003268;28;20037;-61
2023/03/18 04:00:22;;;;;;;12.02;5.90;;;10.50;99.90;;;;;;5002706;28;20037;-61
2023/03/18 04:02:50;;;;;;;9.73;6.03;;;10.40;99.90;;;;;;5007529;28;20045;-61
2023/03/18 04:05:18;;;;;;;12.48;6.45;;;10.40;99.90;;;;;;4999338;28;20052;-60
2023/03/18 04:07:45;;;;;;;13.00;6.15;;;10.40;99.90;;;;;;5005891;28;20038;-60
2023/03/18 04:10:13;;;;;;;14.00;6.20;;;10.40;99.90;;;;;;5005142;28;20771;-61
2023/03/18 04:12:39;;;;;;;11.32;6.63;;;10.40;99.90;;;;;;5002774;28;20042;-61
2023/03/18 04:15:06;;;;;;;12.35;6.50;;;10.50;99.90;;;;;;4984517;28;20122;-60
2023/03/18 04:17:33;;;;;;;13.73;6.03;;;10.40;99.90;;;;;;4984548;28;20045;-60
2023/03/18 04:19:59;;;;;;;11.23;7.05;;;10.50;99.90;;;;;;5002823;28;20157;-61
2023/03/18 04:22:25;;;;;;;11.95;6.95;;;10.40;99.90;;;;;;5002264;28;20038;-60
2023/03/18 04:24:51;;;;;;;9.85;6.78;;;10.40;99.90;;;;;;5001754;28;20061;-61
2023/03/18 04:27:17;;;;;;;8.35;6.18;;;10.50;99.90;;;;;;5002160;28;20030;-61
2023/03/18 04:29:43;;;;;;;12.20;6.88;;;10.50;99.90;;;;;;5001880;28;20121;-60
2023/03/18 04:32:09;;;;;;;14.45;7.00;;;10.60;99.90;;;;;;5001840;28;20045;-60
2023/03/18 04:34:35;;;;;;;13.25;6.65;;;10.50;99.90;;;;;;5001715;28;20069;-61
2023/03/18 04:37:01;;;;;;;11.77;6.90;;;10.50;99.90;;;;;;5002148;28;20036;-61
2023/03/18 04:39:27;;;;;;;11.20;6.50;;;10.40;99.90;;;;;;5001774;28;20678;-60
2023/03/18 04:41:53;;;;;;;11.98;7.07;;;10.40;99.90;;;;;;5002299;28;20057;-60
2023/03/18 04:44:19;;;;;;;10.52;6.60;;;10.50;99.90;;;;;;5001734;28;20548;-60
2023/03/18 04:46:45;;;;;;;10.48;6.85;;;10.50;99.90;;;;;;5002973;28;20393;-60
2023/03/18 04:49:11;;;;;;;13.15;7.68;;;10.50;99.90;;;;;;5002293;28;20125;-60
2023/03/18 04:51:37;;;;;;;10.50;7.15;;;10.50;99.90;;;;;;5001466;28;20430;-60
2023/03/18 04:54:03;;;;;;;11.57;7.10;;;10.40;99.90;;;;;;4995476;28;20124;-60
2023/03/18 04:56:28;;;;;;;14.93;7.18;;;10.50;99.90;;;;;;5000364;28;20046;-61
2023/03/18 04:58:54;;;;;;;10.98;6.78;;;10.50;99.90;;;;;;5001555;28;20405;-60
2023/03/18 05:01:19;;;;;;;14.60;7.10;;;10.40;99.90;;;;;;5000919;28;20045;-60
2023/03/18 05:03:46;;;;;;;12.50;6.90;;;10.40;99.90;;;;;;5000805;28;20025;-61
2023/03/18 05:06:23;;;;;;;13.02;7.65;;;10.40;99.90;;;;;;4999069;28;20030;-60
2023/03/18 05:08:50;;;;;;;10.93;6.50;;;10.50;99.90;;;;;;5002104;28;20026;-60
2023/03/18 05:11:16;;;;;;;9.95;6.35;;;10.40;99.90;;;;;;4999420;28;20441;-60
2023/03/18 05:13:42;;;;;;;11.23;6.30;;;10.50;99.90;;;;;;5001410;28;20037;-60
2023/03/18 05:16:08;;;;;;;10.85;6.07;;;10.50;99.90;;;;;;5001332;28;20025;-59
2023/03/18 05:18:35;;;;;;;9.60;6.15;;;10.40;99.90;;;;;;5002623;28;20030;-60
2023/03/18 05:21:01;;;;;;;10.05;6.25;;;10.40;99.90;;;;;;5000375;28;20030;-60
2023/03/18 05:23:27;;;;;;;13.52;6.18;;;10.40;99.90;;;;;;5001891;28;20524;-60
2023/03/18 05:25:53;;;;;;;11.07;5.63;;;10.40;99.90;;;;;;5002167;28;20370;-60
2023/03/18 05:28:20;;;;;;;9.23;5.63;;;10.40;99.90;;;;;;5001259;28;20030;-60
2023/03/18 05:30:46;;;;;;;11.88;5.78;;;10.50;99.90;;;;;;5001082;28;20034;-60
2023/03/18 05:33:12;;;;;;;11.00;5.55;;;10.50;99.90;;;;;;4997186;28;20030;-60
2023/03/18 05:35:38;;;;;;;9.27;5.63;;;10.40;99.90;;;;;;5001324;28;20054;-60
2023/03/18 05:38:04;;;;;;;12.80;5.63;;;10.40;99.90;;;;;;4983567;28;20061;-59
2023/03/18 05:40:30;;;;;;;12.70;5.50;;;10.40;99.90;;;;;;5001691;28;20038;-60
2023/03/18 05:42:56;;;;;;;13.23;6.00;;;10.50;99.90;;;;;;5001659;28;20401;-60
2023/03/18 05:45:21;;;;;;;13.05;5.90;;;10.50;99.90;;;;;;4999295;28;20041;-60
2023/03/18 05:47:47;;;;;;;8.93;5.60;;;10.50;99.90;;;;;;5001274;28;20389;-60
2023/03/18 05:50:13;;;;;;;8.63;5.28;;;10.40;99.90;;;;;;5001309;28;20378;-60
2023/03/18 05:52:39;;;;;;;9.57;5.45;;;10.30;99.90;;;;;;5001931;28;20049;-60
2023/03/18 05:55:05;;;;;;;9.60;5.68;;;10.50;99.90;;;;;;5000136;28;20026;-60
2023/03/18 05:57:31;;;;;;;13.45;5.68;;;10.40;99.90;;;;;;5000936;28;20052;-60
2023/03/18 05:59:57;;;;;;;12.80;6.35;;;10.40;99.90;;;;;;4998914;28;20038;-60
2023/03/18 06:02:23;;;;;;;11.35;6.05;;;10.40;99.90;;;;;;5000652;28;20099;-60
2023/03/18 06:04:49;;;;;;;10.57;6.07;;;10.40;99.90;;;;;;5000836;28;20231;-60
2023/03/18 06:07:14;;;;;;;15.07;6.53;;;10.40;99.90;;;;;;4998488;28;20529;-60
2023/03/18 06:09:40;;;;;;;11.68;5.90;;;10.40;99.90;;;;;;4999905;28;20034;-60
2023/03/18 06:12:06;;;;;;;12.63;6.13;;;10.30;99.90;;;;;;4998938;28;20030;-59
2023/03/18 06:14:32;;;;;;;13.30;6.07;;;10.30;99.90;;;;;;5000466;28;20038;-60
2023/03/18 06:16:58;;;;;;;13.07;6.13;;;10.30;99.90;;;;;;5000500;28;20092;-60
2023/03/18 06:19:24;;;;;;;14.52;5.97;;;10.30;99.90;;;;;;5000066;28;20087;-61
2023/03/18 06:21:51;;;;;;;11.40;6.60;;;10.40;99.90;;;;;;5000756;28;20025;-60
2023/03/18 06:24:17;;;;;;;11.95;6.55;;;10.50;99.90;;;;;;4999902;28;20034;-60
2023/03/18 06:26:43;;;;;;;10.10;6.20;;;10.40;99.90;;;;;;5000176;28;20038;-60
2023/03/18 06:29:09;;;;;;;11.75;6.63;;;10.40;99.90;;;;;;4999707;28;20473;-60
2023/03/18 06:31:36;;;;;;;8.77;5.90;;;10.40;99.90;;;;;;5000525;28;20512;-60
2023/03/18 06:34:02;;;;;;;13.13;6.45;;;10.40;99.90;;;;;;4998146;28;20070;-59
2023/03/18 06:36:27;;;;;;;11.65;6.55;;;10.30;99.90;;;;;;5000579;28;20053;-61
2023/03/18 06:38:53;;;;;;;10.98;6.85;;;10.30;99.90;;;;;;5001511;28;20117;-60
2023/03/18 06:41:19;;;;;;;10.93;7.15;;;10.30;99.90;;;;;;4999195;28;20527;-60
2023/03/18 06:43:46;;;;;;;9.77;6.90;;;10.50;99.90;;;;;;5000878;28;20347;-60
2023/03/18 06:46:13;;;;;;;10.63;7.10;;;10.50;99.90;;;;;;5000148;28;20641;-60
2023/03/18 06:48:39;;;;;;;12.88;6.90;;;10.50;99.90;;;;;;5001718;28;20026;-60
2023/03/18 06:51:06;;;;;;;13.30;7.25;;;10.60;99.90;;;;;;4991221;28;20374;-59
2023/03/18 06:53:32;;;;;;;12.93;7.05;;;10.60;99.90;;;;;;5000227;28;20049;-60
2023/03/18 06:55:58;;;;;;;11.95;7.65;;;10.60;99.90;;;;;;4999061;28;20042;-60
2023/03/18 06:58:24;;;;;;;14.07;7.07;;;10.60;99.90;;;;;;5005845;28;20370;-62
2023/03/18 07:00:50;;;;;;;13.73;7.30;;;10.70;99.90;;;;;;5001425;28;20176;-61
2023/03/18 07:03:15;;;;;;;10.48;7.82;;;10.80;99.90;;;;;;5002897;28;20057;-62
2023/03/18 07:05:41;;;;;;;10.57;7.30;;;10.80;99.90;;;;;;5004514;28;20529;-62
2023/03/18 07:08:08;;;;;;;8.73;7.10;;;10.80;99.90;;;;;;4999636;28;20029;-60
2023/03/18 07:10:33;;;;;;;13.40;7.28;;;11.00;99.90;;;;;;5005641;28;20041;-62
2023/03/18 07:12:59;;;;;;;14.52;8.10;;;11.10;99.90;;;;;;5006925;28;20042;-62
2023/03/18 07:15:25;;;;;;;15.25;8.02;;;11.10;99.90;;;;;;5006524;28;20041;-62
2023/03/18 07:17:51;;;;;;;12.23;7.85;;;11.10;99.90;;;;;;5004666;28;20041;-61
2023/03/18 07:20:17;;;;;;;12.18;7.82;;;11.20;99.90;;;;;;4990956;28;20045;-61
2023/03/18 07:22:45;;;;;;;11.98;7.90;;;11.30;99.90;;;;;;5003457;28;20054;-61
2023/03/18 07:25:12;;;;;;;11.85;8.15;;;11.40;99.90;;;;;;5003634;28;20042;-61
2023/03/18 07:27:38;;;;;;;13.13;7.88;;;11.40;99.90;;;;;;5003149;28;20125;-62
2023/03/18 07:30:05;;;;;;;10.68;7.50;;;11.50;99.90;;;;;;5005257;28;20121;-61
2023/03/18 07:32:31;;;;;;;12.57;7.55;;;11.60;99.90;;;;;;5003531;28;20048;-61
2023/03/18 07:34:57;;;;;;;15.43;8.20;;;11.60;99.90;;;;;;5001885;28;20669;-61
2023/03/18 07:37:24;;;;;;;12.68;8.00;;;11.70;99.90;;;;;;5001485;28;20440;-62
2023/03/18 07:39:49;;;;;;;12.95;8.35;;;12.00;99.90;;;;;;4999835;28;20473;-62
2023/03/18 07:42:15;;;;;;;12.13;8.23;;;11.90;99.90;;;;;;5000843;28;20092;-61
2023/03/18 07:44:41;;;;;;;13.02;9.55;;;11.90;99.90;;;;;;5001282;28;20305;-62
2023/03/18 07:47:06;;;;;;;15.02;7.53;;;12.00;99.90;;;;;;4996843;28;20042;-61
2023/03/18 07:49:32;;;;;;;9.85;7.47;;;12.00;99.90;;;;;;4997291;28;20271;-61
2023/03/18 07:51:58;;;;;;;12.80;7.47;;;12.00;99.90;;;;;;5002838;28;20032;-62
2023/03/18 07:54:23;;;;;;;9.80;7.05;;;11.90;99.90;;;;;;5001044;28;20065;-61
2023/03/18 07:56:50;;;;;;;10.60;7.25;;;11.80;99.90;;;;;;4998670;28;20141;-62
2023/03/18 07:59:16;;;;;;;11.57;6.97;;;11.90;99.90;;;;;;5004056;28;20034;-62
2023/03/18 08:01:42;;;;;;;14.55;8.40;;;11.90;99.90;;;;;;5004780;28;20077;-62
2023/03/18 08:04:08;;;;;;;12.45;8.55;;;12.00;99.90;;;;;;5004542;28;20057;-62
2023/03/18 08:06:33;;;;;;;11.73;7.65;;;12.00;99.90;;;;;;5003754;28;20034;-62
2023/03/18 08:08:59;;;;;;;13.02;8.13;;;12.10;99.90;;;;;;4980761;28;20141;-62
2023/03/18 08:11:25;;;;;;;12.45;7.57;;;12.10;99.90;;;;;;5003603;28;20439;-62
2023/03/18 08:13:51;;;;;;;12.98;6.20;;;12.10;99.90;;;;;;5004822;28;20057;-63
2023/03/18 08:16:17;;;;;;;13.18;7.05;;;12.20;99.90;;;;;;5000778;28;20034;-61
2023/03/18 08:18:43;;;;;;;12.88;6.65;;;12.10;99.90;;;;;;4983211;28;20132;-62
2023/03/18 08:21:09;;;;;;;9.95;6.55;;;12.00;99.90;;;;;;4993737;28;20469;-61
2023/03/18 08:23:35;;;;;;;12.10;6.65;;;11.90;99.90;;;;;;5005100;28;20033;-62
2023/03/18 08:26:01;;;;;;;11.65;6.55;;;11.90;99.90;;;;;;4986026;28;20385;-61
2023/03/18 08:28:27;;;;;;;12.20;6.55;;;11.90;99.90;;;;;;4986419;28;20034;-62
2023/03/18 08:30:58;;;;;;;11.50;6.43;;;12.00;99.90;;;;;;5003026;28;20047;-62
2023/03/18 08:33:24;;;;;;;11.07;5.88;;;12.00;99.90;;;;;;5000613;28;20030;-61
2023/03/18 08:35:50;;;;;;;9.10;5.72;;;12.10;99.90;;;;;;5003491;28;20034;-62
2023/03/18 08:38:17;;;;;;;12.93;6.18;;;12.10;99.90;;;;;;5003597;28;20461;-62
2023/03/18 08:40:42;;;;;;;10.15;5.88;;;12.30;99.90;;;;;;5003047;28;20442;-62
2023/03/18 08:43:08;;;;;;;8.98;5.97;;;12.40;99.90;;;;;;5004299;28;20091;-61
2023/03/18 08:45:35;;;;;;;7.75;5.40;;;12.60;99.90;;;;;;5003777;28;20381;-62
2023/03/18 08:48:01;;;;;;;7.20;4.93;;;12.70;99.90;;;;;;5003773;28;20156;-62
2023/03/18 08:50:28;;;;;;;10.73;5.30;;;12.80;99.90;;;;;;5004121;28;20132;-61
2023/03/18 08:52:57;;;;;;;8.70;5.32;;;12.90;99.90;;;;;;5008061;28;20041;-62
2023/03/18 08:55:32;;;;;;;9.60;5.32;;;13.00;99.90;;;;;;5008890;28;20041;-62
2023/03/18 08:57:59;;;;;;;7.90;4.75;;;13.20;99.90;;;;;;5002953;28;20034;-62
2023/03/18 09:00:25;;;;;;;7.78;5.00;;;13.30;99.90;;;;;;4985577;28;20038;-62
2023/03/18 09:02:51;;;;;;;10.07;5.30;;;13.40;99.90;;;;;;5002208;28;20045;-62
2023/03/18 09:05:18;;;;;;;10.18;5.00;;;13.50;99.90;;;;;;5012503;28;20528;-62
2023/03/18 09:07:44;;;;;;;7.75;5.07;;;13.60;99.90;;;;;;5001110;28;20030;-62
2023/03/18 09:10:12;;;;;;;6.40;4.60;;;13.50;99.90;;;;;;5004039;28;20095;-62
2023/03/18 09:12:38;;;;;;;7.78;4.50;;;13.50;99.90;;;;;;5003929;28;20045;-62
2023/03/18 09:15:05;;;;;;;8.02;4.30;;;13.50;99.90;;;;;;4969544;28;20108;-61
2023/03/18 09:17:30;;;;;;;5.57;3.97;;;13.70;99.90;;;;;;5004666;28;20088;-62
2023/03/18 09:19:56;;;;;;;5.18;3.72;;;13.70;99.90;;;;;;5002670;28;20062;-62
2023/03/18 09:22:22;;;;;;;5.43;4.13;;;13.60;99.90;;;;;;4999193;28;20042;-62
2023/03/18 09:24:48;;;;;;;5.82;4.22;;;13.60;99.90;;;;;;5002802;28;20053;-63
2023/03/18 09:27:14;;;;;;;7.88;3.83;;;13.60;99.90;;;;;;5001789;28;20033;-64
2023/03/18 09:29:40;;;;;;;5.20;3.45;;;13.60;99.90;;;;;;5003048;28;20333;-63
2023/03/18 09:32:07;;;;;;;6.95;3.80;;;13.60;99.90;;;;;;4997495;28;20061;-62
2023/03/18 09:34:32;;;;;;;6.35;3.70;;;13.70;99.90;;;;;;5001592;28;20429;-62
2023/03/18 09:36:58;;;;;;;6.53;3.53;;;13.70;99.90;;;;;;4991642;28;20478;-62
2023/03/18 09:39:24;;;;;;;6.15;3.47;;;13.70;99.90;;;;;;5004405;28;20065;-62
2023/03/18 09:42:27;;;;;;;6.18;3.55;;;13.70;99.90;;;;;;5002598;28;20049;-62
2023/03/18 09:45:01;;;;;;;6.82;3.97;;;13.80;99.90;;;;;;5002935;28;20042;-63
2023/03/18 09:47:58;;;;;;;6.25;3.80;;;13.80;99.90;;;;;;4982258;28;20360;-62
2023/03/18 09:50:37;;;;;;;5.45;3.70;;;14.00;99.90;;;;;;4990749;28;20037;-62
2023/03/18 09:53:30;;;;;;;6.78;4.15;;;14.20;99.90;;;;;;5009406;28;20042;-62
2023/03/18 09:55:59;;;;;;;6.95;3.58;;;14.30;99.90;;;;;;5007866;28;20029;-62
2023/03/18 09:58:43;;;;;;;6.47;3.70;;;14.30;99.90;;;;;;5008793;28;20369;-62
2023/03/18 10:01:12;;;;;;;6.75;3.85;;;14.30;99.90;;;;;;5007162;28;20406;-61
2023/03/18 10:04:17;;;;;;;6.60;3.42;;;14.20;99.90;;;;;;5008774;28;20045;-62
2023/03/18 10:06:44;;;;;;;3.45;2.75;;;14.40;99.90;;;;;;5003234;28;20508;-63
2023/03/18 10:09:23;;;;;;;5.63;3.40;;;14.50;99.90;;;;;;5006038;28;20105;-61
2023/03/18 10:11:51;;;;;;;3.83;2.40;;;14.60;99.90;;;;;;5008728;28;20311;-62
2023/03/18 10:14:41;;;;;;;5.03;2.78;;;14.70;99.90;;;;;;4999435;28;20064;-62
2023/03/18 10:17:16;;;;;;;4.25;3.10;;;14.70;99.90;;;;;;4996953;28;20066;-61
2023/03/18 10:20:03;;;;;;;5.53;2.80;;;14.80;99.90;;;;;;4994991;28;20084;-62
2023/03/18 10:23:06;;;;;;;5.35;3.00;;;14.80;99.90;;;;;;4981693;28;20038;-62
2023/03/18 10:25:56;;;;;;;6.70;2.50;;;14.70;99.90;;;;;;5003773;28;20342;-61
2023/03/18 10:28:37;;;;;;;4.20;2.58;;;14.80;99.90;;;;;;4999605;28;20041;-61
2023/03/18 10:31:30;;;;;;;5.28;2.50;;;14.80;99.90;;;;;;4997132;28;20038;-61
2023/03/18 10:34:26;;;;;;;5.30;2.13;;;14.90;99.90;;;;;;5003378;28;20038;-61
2023/03/18 10:37:05;;;;;;;6.05;2.35;;;15.30;99.90;;;;;;4959732;28;20434;-62
2023/03/18 10:39:32;;;;;;;3.90;2.15;;;15.20;99.90;;;;;;4986362;28;20046;-61
2023/03/18 10:42:09;;;;;;;6.15;2.42;;;15.10;99.90;;;;;;4984094;28;20478;-61
2023/03/18 10:44:37;;;;;;;3.15;2.15;;;15.00;99.90;;;;;;4985517;28;20026;-62
2023/03/18 10:47:20;;;;;;;3.97;2.28;;;15.00;99.90;;;;;;4985993;28;20046;-61
2023/03/18 10:50:13;;;;;;;5.05;2.40;;;14.90;99.90;;;;;;4970434;28;20040;-62
2023/03/18 10:52:54;;;;;;;3.90;2.00;;;15.00;99.90;;;;;;5004367;28;20111;-64
2023/03/18 10:55:26;;;;;;;3.38;2.40;;;15.20;99.90;;;;;;5005919;28;20046;-64
2023/03/18 10:57:52;;;;;;;5.77;2.40;;;15.20;99.90;;;;;;5013063;28;20040;-65
2023/03/18 11:00:26;;;;;;;5.10;2.40;;;15.40;99.90;;;;;;5006889;28;20030;-63
2023/03/18 11:02:53;;;;;;;5.32;2.42;;;15.70;99.90;;;;;;5004308;28;20042;-64
2023/03/18 11:05:25;;;;;;;4.53;2.50;;;15.70;99.90;;;;;;5005031;28;20112;-64
2023/03/18 11:08:00;;;;;;;5.85;2.30;;;15.40;99.90;;;;;;5006548;28;20061;-64
2023/03/18 11:10:30;;;;;;;4.00;2.33;;;15.30;99.90;;;;;;4989457;28;20038;-64
2023/03/18 11:13:01;;;;;;;3.88;2.30;;;15.50;99.90;;;;;;5006639;28;21696;-64
2023/03/18 11:15:38;;;;;;;4.10;2.35;;;15.60;99.90;;;;;;4985968;28;20061;-64
2023/03/18 11:18:04;;;;;;;3.95;2.25;;;15.50;99.90;;;;;;4982796;28;20078;-63
2023/03/18 11:20:46;;;;;;;8.35;2.45;;;15.50;99.90;;;;;;4985718;28;20122;-64
2023/03/18 11:23:16;;;;;;;4.10;2.22;;;15.90;99.90;;;;;;4987474;28;20038;-63
2023/03/18 11:25:54;;;;;;;6.47;1.90;;;15.90;99.90;;;;;;4983186;28;20053;-64
2023/03/18 11:28:25;;;;;;;3.30;1.98;;;15.90;99.90;;;;;;5013887;28;20038;-64
2023/03/18 11:30:55;;;;;;;4.50;2.22;;;15.80;99.90;;;;;;5007164;28;20121;-64
2023/03/18 11:33:24;;;;;;;4.85;2.40;;;16.20;99.90;;;;;;5001978;28;20516;-64
2023/03/18 11:35:56;;;;;;;5.03;2.00;;;16.60;99.90;;;;;;5004447;28;20785;-65
2023/03/18 11:38:31;;;;;;;2.78;2.00;;;16.60;99.90;;;;;;5004225;28;20038;-64
2023/03/18 11:41:22;;;;;;;3.38;1.80;;;16.60;99.90;;;;;;5004882;28;20034;-56
2023/03/18 11:44:17;;;;;;;4.15;2.10;;;16.40;99.90;;;;;;4988349;28;20056;-62
2023/03/18 11:46:52;;;;;;;3.03;1.75;;;16.50;99.90;;;;;;4981303;28;20058;-57
2023/03/18 11:49:24;;;;;;;5.40;2.15;;;16.40;99.90;;;;;;4991030;28;20146;-58
2023/03/18 11:52:17;;;;;;;4.40;2.20;;;16.40;99.90;;;;;;4993341;28;20156;-59
2023/03/18 11:55:02;;;;;;;7.60;2.30;;;16.30;99.90;;;;;;4986820;28;20041;-59
2023/03/18 11:58:24;;;;;;;5.68;2.08;;;16.30;99.90;;;;;;5002295;28;20458;-62
2023/03/18 12:01:03;;;;;;;4.13;2.03;;;16.50;99.90;;;;;;4983338;28;20377;-60
2023/03/18 12:04:03;;;;;;;4.25;1.90;;;16.50;99.90;;;;;;5002095;28;20042;-61
2023/03/18 12:06:30;;;;;;;5.40;1.90;;;16.60;99.90;;;;;;4990064;28;20257;-60
2023/03/18 12:09:08;;;;;;;3.20;1.95;;;16.70;99.90;;;;;;5004639;28;20030;-65
2023/03/18 12:11:37;;;;;;;5.45;2.20;;;16.70;99.90;;;;;;5000397;28;20034;-65
2023/03/18 12:14:22;;;;;;;4.05;2.13;;;16.60;99.90;;;;;;5000286;28;20117;-64
2023/03/18 12:17:09;;;;;;;5.30;1.80;;;16.60;99.90;;;;;;4987449;28;20525;-65
2023/03/18 12:19:53;;;;;;;2.97;1.80;;;16.60;99.90;;;;;;5003549;28;20107;-64
2023/03/18 12:22:28;;;;;;;2.75;1.52;;;16.60;99.90;;;;;;5001725;28;20022;-65
2023/03/18 12:25:29;;;;;;;3.22;1.92;;;16.60;99.90;;;;;;5006169;28;20053;-64
2023/03/18 12:28:18;;;;;;;4.88;2.72;;;16.80;99.90;;;;;;4962463;28;20602;-67
2023/03/18 12:30:57;;;;;;;5.68;2.60;;;17.00;99.90;;;;;;5004493;28;20802;-67
2023/03/18 12:33:41;;;;;;;3.55;1.60;;;17.10;99.90;;;;;;4999774;28;20540;-66
2023/03/18 12:36:43;;;;;;;3.65;1.60;;;17.00;99.90;;;;;;5003990;28;20678;-65
2023/03/18 12:39:40;;;;;;;5.50;2.20;;;16.90;99.90;;;;;;5001658;28;20496;-66
2023/03/18 12:42:17;;;;;;;3.65;1.45;;;16.80;99.90;;;;;;5002468;28;20382;-66
2023/03/18 12:45:02;;;;;;;3.13;1.90;;;16.80;99.90;;;;;;5004370;28;20033;-67
2023/03/18 12:47:35;;;;;;;1.73;1.30;;;16.90;99.90;;;;;;4983991;28;20126;-66
2023/03/18 12:50:19;;;;;;;3.33;1.30;;;16.90;99.90;;;;;;4997682;28;20133;-66
2023/03/18 12:52:49;;;;;;;4.18;1.42;;;16.90;99.90;;;;;;5004490;28;20123;-66
2023/03/18 12:55:21;;;;;;;5.90;1.40;;;16.90;99.90;;;;;;5003621;28;20605;-66
2023/03/18 12:58:02;;;;;;;4.40;1.30;;;16.80;99.90;;;;;;5002329;28;20099;-66